Terminal Aerodrome Forecast
Issued by NWS

Home | Current Version | Previous Version | Text Only | Print | Product List | Glossary On
Versions: 1 2 3 4 5 6 7 8 9 10 11 12 13 14 15 16 17 18 19 20 21 22 23 24 25 26
000
FTUS45 KREV 051739
TAFRNO
TAF
KRNO 051739Z 0518/0618 VRB04KT P6SM SCT150 BKN220
     FM052300 28008KT P6SM FEW150 SCT220
     FM060400 34007KT P6SM SCT200
     FM061400 VRB04KT P6SM FEW060 SCT200=

USA.gov is the U.S. government's official web portal to all federal, state and local government web resources and services.